Time;durP1;ratioP1;P1;durP2;ratioP2;P2;SDS_P1;SDS_P2;PMS_P1;PMS_P2;Temp;Humidity;BMP_temperature;BMP_pressure;BME280_temperature;BME280_humidity;BME280_pressure;Samples;Min_cycle;Max_cycle;Signal;HPM_P1;HPM_P2
2024/01/27 00:00:59;;;;;;;16.90;5.95;;;2.90;99.90;;;2.00;100.00;103115.53;4208967;28;20036;-71
2024/01/27 00:03:00;;;;;;;17.58;5.80;;;2.90;99.90;;;1.94;100.00;103107.91;4200320;28;20035;-70
2024/01/27 00:05:00;;;;;;;21.75;7.35;;;2.80;99.90;;;1.91;100.00;103109.75;4201758;28;20028;-71
2024/01/27 00:07:01;;;;;;;24.83;7.10;;;2.70;99.90;;;1.89;100.00;103099.38;4201670;28;20029;-71
2024/01/27 00:09:03;;;;;;;24.85;7.82;;;2.80;99.90;;;1.93;100.00;103107.97;4232881;28;20027;-71
2024/01/27 00:11:04;;;;;;;32.53;10.23;;;2.70;99.90;;;1.96;100.00;103106.13;4211740;28;20090;-70
2024/01/27 00:13:05;;;;;;;23.63;9.40;;;2.70;99.90;;;1.96;100.00;103106.13;4200741;28;20450;-70
2024/01/27 00:15:08;;;;;;;25.17;9.23;;;2.80;99.90;;;1.95;100.00;103094.00;4213444;28;20027;-71
2024/01/27 00:17:09;;;;;;;20.10;7.80;;;2.80;99.90;;;1.96;100.00;103100.94;4218451;28;20570;-70
2024/01/27 00:19:10;;;;;;;19.42;6.47;;;2.80;99.90;;;1.92;100.00;103094.09;4218170;28;20146;-71
2024/01/27 00:21:11;;;;;;;17.00;5.88;;;2.80;99.90;;;1.92;100.00;103086.28;4223039;28;20015;-71
2024/01/27 00:23:12;;;;;;;19.13;6.60;;;2.70;99.90;;;1.95;100.00;103085.34;4206720;28;20024;-71
2024/01/27 00:25:13;;;;;;;13.27;5.53;;;2.70;99.90;;;1.94;100.00;103076.66;4216912;28;20107;-71
2024/01/27 00:27:14;;;;;;;10.57;5.03;;;2.70;99.90;;;1.92;100.00;103075.00;4203818;28;20024;-71
2024/01/27 00:29:15;;;;;;;22.08;5.82;;;2.70;99.90;;;1.88;100.00;103070.81;4201582;28;20549;-71
2024/01/27 00:31:15;;;;;;;22.73;5.93;;;2.70;99.90;;;1.89;100.00;103075.97;4208401;28;20024;-71
2024/01/27 00:33:16;;;;;;;12.35;5.43;;;2.70;99.90;;;1.88;100.00;103076.84;4203283;28;20427;-70
2024/01/27 00:35:17;;;;;;;17.02;6.35;;;2.70;99.90;;;1.85;100.00;103074.31;4201606;28;20036;-71
2024/01/27 00:37:18;;;;;;;20.50;8.73;;;2.70;99.90;;;1.85;100.00;103076.94;4216978;28;20031;-71
2024/01/27 00:39:20;;;;;;;24.15;8.68;;;2.70;99.90;;;1.88;100.00;103081.22;4201472;28;20025;-71
2024/01/27 00:41:21;;;;;;;20.92;7.72;;;2.70;99.90;;;1.88;100.00;103076.03;4207887;28;20097;-71
2024/01/27 00:43:22;;;;;;;15.50;6.30;;;2.70;99.90;;;1.84;100.00;103075.25;4200476;28;20110;-71
2024/01/27 00:45:23;;;;;;;16.25;6.88;;;2.60;99.90;;;1.81;100.00;103075.34;4209544;28;20028;-71
2024/01/27 00:47:24;;;;;;;16.95;5.78;;;2.60;99.90;;;1.78;100.00;103070.22;4206842;28;20052;-71
2024/01/27 00:49:24;;;;;;;18.00;6.72;;;2.60;99.90;;;1.81;100.00;103074.47;4216752;28;20399;-70
2024/01/27 00:51:25;;;;;;;21.20;6.13;;;2.60;99.90;;;1.86;100.00;103073.44;4205312;28;20029;-71
2024/01/27 00:53:26;;;;;;;11.95;5.63;;;2.60;99.90;;;1.86;100.00;103067.38;4201416;28;20039;-70
2024/01/27 00:55:27;;;;;;;20.13;6.68;;;2.70;99.90;;;1.85;100.00;103068.31;4201320;28;20044;-70
2024/01/27 00:57:28;;;;;;;13.90;5.57;;;2.70;99.90;;;1.85;100.00;103070.91;4216821;28;20515;-70
2024/01/27 00:59:29;;;;;;;12.30;6.45;;;2.70;99.90;;;1.88;100.00;103074.25;4200136;28;20029;-71
2024/01/27 01:01:29;;;;;;;18.08;6.32;;;2.70;99.90;;;1.93;100.00;103080.19;4206627;28;20417;-71
2024/01/27 01:03:30;;;;;;;19.55;6.68;;;2.70;99.90;;;1.96;100.00;103074.91;4219662;28;20024;-71
2024/01/27 01:05:31;;;;;;;21.02;8.32;;;2.70;99.90;;;2.00;100.00;103073.06;4207269;28;20020;-71
2024/01/27 01:07:32;;;;;;;14.80;6.38;;;2.70;99.90;;;2.02;100.00;103068.66;4204557;28;20020;-71
2024/01/27 01:09:33;;;;;;;20.40;7.07;;;2.80;99.90;;;2.05;100.00;103069.44;4213200;28;20039;-70
2024/01/27 01:11:34;;;;;;;17.13;6.40;;;2.80;99.90;;;2.06;100.00;103052.06;4205125;28;20093;-71
2024/01/27 01:13:35;;;;;;;16.80;6.13;;;2.80;99.90;;;2.11;100.00;103061.44;4204155;28;20029;-71
2024/01/27 01:15:36;;;;;;;26.40;7.00;;;2.80;99.90;;;2.12;100.00;103060.53;4204375;28;20028;-70
2024/01/27 01:17:37;;;;;;;22.50;7.03;;;2.90;99.90;;;2.12;100.00;103060.53;4204038;28;20402;-70
2024/01/27 01:19:38;;;;;;;15.98;6.57;;;2.90;99.90;;;2.13;100.00;103054.44;4204059;28;20033;-71
2024/01/27 01:21:39;;;;;;;10.52;4.85;;;2.90;99.90;;;2.07;100.00;103051.16;4230502;28;20052;-70
2024/01/27 01:23:40;;;;;;;13.18;5.63;;;2.90;99.90;;;1.96;100.00;103048.00;4205080;28;20514;-70
2024/01/27 01:25:41;;;;;;;24.95;7.45;;;2.80;99.90;;;1.92;100.00;103046.38;4204301;28;20047;-71
2024/01/27 01:27:42;;;;;;;15.60;6.72;;;2.70;99.90;;;1.94;100.00;103042.00;4204082;28;20024;-71
2024/01/27 01:29:43;;;;;;;22.52;7.28;;;2.70;99.90;;;1.96;100.00;103045.41;4203971;28;20032;-71
2024/01/27 01:31:44;;;;;;;13.35;6.13;;;2.70;99.90;;;1.97;100.00;103040.16;4229461;28;20104;-70
2024/01/27 01:33:45;;;;;;;15.85;5.60;;;2.80;99.90;;;1.99;100.00;103033.16;4203849;28;20097;-71
2024/01/27 01:35:45;;;;;;;8.60;4.85;;;2.70;99.90;;;2.00;100.00;103031.41;4203932;28;20111;-71
2024/01/27 01:37:48;;;;;;;11.95;5.07;;;2.80;99.90;;;2.00;100.00;103028.81;4202576;28;20123;-70
2024/01/27 01:39:48;;;;;;;22.48;6.90;;;2.70;99.90;;;1.99;100.00;103032.31;4203636;28;20056;-71
2024/01/27 01:41:49;;;;;;;20.05;6.82;;;2.80;99.90;;;2.00;100.00;103028.81;4219172;28;20028;-71
2024/01/27 01:43:50;;;;;;;24.33;7.80;;;2.80;99.90;;;2.08;100.00;103022.47;4203864;28;20016;-71
2024/01/27 01:45:53;;;;;;;23.20;6.80;;;2.80;99.90;;;2.08;100.00;103012.06;4236917;27;20024;-71
2024/01/27 01:47:54;;;;;;;19.52;6.13;;;2.80;99.90;;;2.12;100.00;103010.22;4207228;28;20032;-71
2024/01/27 01:49:56;;;;;;;15.00;5.55;;;2.90;99.90;;;2.08;100.00;102993.84;4203895;28;20040;-71
2024/01/27 01:51:57;;;;;;;16.77;6.68;;;2.90;99.90;;;2.10;100.00;102999.00;4224363;28;20622;-71
2024/01/27 01:54:00;;;;;;;15.05;6.10;;;2.90;99.90;;;2.06;100.00;102993.03;4203722;28;20108;-71
2024/01/27 01:56:02;;;;;;;16.63;6.78;;;2.90;99.90;;;2.04;100.00;103000.03;4203598;28;20036;-70
2024/01/27 01:58:04;;;;;;;13.02;5.72;;;2.80;99.90;;;2.01;100.00;103001.88;4219020;28;20024;-71
2024/01/27 02:00:06;;;;;;;14.43;6.28;;;2.80;99.90;;;1.97;100.00;102997.69;4219192;28;20528;-71
2024/01/27 02:02:09;;;;;;;16.10;6.38;;;2.80;99.90;;;1.95;100.00;103000.31;4208380;28;20028;-71
2024/01/27 02:04:10;;;;;;;21.73;6.13;;;2.80;99.90;;;1.93;100.00;102991.72;4218877;28;20502;-71
2024/01/27 02:06:10;;;;;;;16.92;5.97;;;2.70;99.90;;;1.90;100.00;102991.78;4203590;28;20017;-71
2024/01/27 02:08:11;;;;;;;17.58;6.15;;;2.70;99.90;;;1.89;100.00;102992.69;4227796;28;20099;-71
2024/01/27 02:10:18;;;;;;;14.88;5.32;;;2.70;99.90;;;1.87;100.00;102986.69;4208032;28;20028;-71
2024/01/27 02:12:18;;;;;;;18.02;7.68;;;2.70;99.90;;;1.85;100.00;102983.25;4231936;28;20050;-71
2024/01/27 02:14:20;;;;;;;15.25;5.03;;;2.70;99.90;;;1.84;100.00;102971.16;4220107;28;20036;-70
2024/01/27 02:16:21;;;;;;;17.80;6.45;;;2.70;99.90;;;1.85;100.00;102970.25;4218873;28;20028;-71
2024/01/27 02:18:22;;;;;;;13.27;5.28;;;2.70;99.90;;;1.85;100.00;102972.84;4206921;28;20031;-71
2024/01/27 02:20:23;;;;;;;16.25;6.13;;;2.70;99.90;;;1.84;100.00;102970.31;4202354;28;20024;-71
2024/01/27 02:22:24;;;;;;;15.15;6.07;;;2.60;99.90;;;1.83;100.00;102972.03;4225278;28;20484;-71
2024/01/27 02:24:25;;;;;;;19.98;7.00;;;2.70;99.90;;;1.83;100.00;102974.66;4203219;28;20025;-71
2024/01/27 02:26:26;;;;;;;12.05;5.18;;;2.60;99.90;;;1.81;100.00;102975.59;4203150;28;20054;-71
2024/01/27 02:28:26;;;;;;;17.90;6.20;;;2.60;99.90;;;1.81;100.00;102968.66;4202991;28;20021;-70
2024/01/27 02:30:27;;;;;;;16.92;6.75;;;2.60;99.90;;;1.83;100.00;102969.44;4203144;28;20086;-71
2024/01/27 02:32:28;;;;;;;17.58;6.38;;;2.60;99.90;;;1.84;100.00;102976.38;4217053;28;20020;-71
2024/01/27 02:34:29;;;;;;;16.73;6.65;;;2.70;99.90;;;1.83;100.00;102972.03;4201663;28;20054;-71
2024/01/27 02:36:30;;;;;;;23.45;6.20;;;2.60;99.90;;;1.84;100.00;102986.78;4216350;28;20086;-70
2024/01/27 02:38:31;;;;;;;28.77;6.72;;;2.60;99.90;;;1.82;100.00;102987.72;4215624;28;20074;-71
2024/01/27 02:40:31;;;;;;;18.48;6.78;;;2.60;99.90;;;1.78;100.00;102988.69;4202810;28;20058;-71
2024/01/27 02:42:32;;;;;;;19.00;6.30;;;2.60;99.90;;;1.79;100.00;102988.66;4208812;28;20020;-71
2024/01/27 02:44:33;;;;;;;15.48;5.93;;;2.60;99.90;;;1.78;100.00;102986.09;4202600;28;20028;-71
2024/01/27 02:46:34;;;;;;;26.02;7.03;;;2.50;99.90;;;1.74;100.00;102990.53;4214004;28;20037;-71
2024/01/27 02:48:35;;;;;;;19.95;7.07;;;2.50;99.90;;;1.75;100.00;102987.03;4202686;28;20025;-71
2024/01/27 02:50:35;;;;;;;22.63;6.35;;;2.50;99.90;;;1.77;100.00;102984.38;4203430;28;20028;-71
2024/01/27 02:52:36;;;;;;;20.23;5.60;;;2.60;99.90;;;1.80;100.00;102982.53;4207015;28;20028;-70
2024/01/27 02:54:37;;;;;;;17.23;5.63;;;2.60;99.90;;;1.80;100.00;102976.47;4202729;28;20035;-71
2024/01/27 02:56:38;;;;;;;19.42;5.30;;;2.50;99.90;;;1.79;100.00;102972.19;4202638;28;20024;-71
2024/01/27 02:58:41;;;;;;;15.52;6.13;;;2.60;99.90;;;1.83;100.00;102982.44;4201644;28;20021;-70
2024/01/27 03:00:41;;;;;;;20.27;6.00;;;2.60;99.90;;;1.82;100.00;102966.91;4203775;28;20475;-71
2024/01/27 03:02:42;;;;;;;13.65;5.32;;;2.60;99.90;;;1.82;100.00;102966.91;4217991;28;20020;-71
2024/01/27 03:04:43;;;;;;;15.55;5.55;;;2.60;99.90;;;1.79;100.00;102965.25;4201486;28;20029;-71
2024/01/27 03:06:44;;;;;;;14.88;5.32;;;2.60;99.90;;;1.79;100.00;102967.84;4201425;28;20046;-71
2024/01/27 03:08:45;;;;;;;17.25;6.45;;;2.60;99.90;;;1.79;100.00;102967.84;4214492;28;20024;-70
2024/01/27 03:10:46;;;;;;;18.38;5.85;;;2.60;99.90;;;1.76;100.00;102956.69;4219390;28;20024;-71
2024/01/27 03:12:47;;;;;;;15.68;5.30;;;2.60;99.90;;;1.77;100.00;102969.63;4211759;28;20101;-70
2024/01/27 03:14:49;;;;;;;15.23;5.75;;;2.50;99.90;;;1.73;100.00;102968.03;4211994;28;20021;-71
2024/01/27 03:16:50;;;;;;;25.08;6.10;;;2.50;99.90;;;1.68;100.00;102970.75;4219133;28;20019;-71
2024/01/27 03:18:51;;;;;;;13.27;6.28;;;2.50;99.90;;;1.68;100.00;102985.50;4218813;28;20020;-71
2024/01/27 03:20:52;;;;;;;15.20;5.45;;;2.50;99.90;;;1.62;100.00;102977.88;4217805;28;20403;-71
2024/01/27 03:22:53;;;;;;;16.48;6.38;;;2.50;99.90;;;1.60;100.00;102977.06;4208589;28;20420;-70
2024/01/27 03:24:55;;;;;;;23.77;6.93;;;2.40;99.90;;;1.58;100.00;102971.06;4217667;28;20101;-70
2024/01/27 03:26:55;;;;;;;17.25;6.13;;;2.40;99.90;;;1.60;100.00;102964.06;4202205;28;20020;-70
2024/01/27 03:28:56;;;;;;;19.77;6.70;;;2.40;99.90;;;1.69;100.00;102971.59;4218085;28;20024;-71
2024/01/27 03:30:59;;;;;;;12.88;6.63;;;2.40;99.90;;;1.76;100.00;102970.53;4207513;28;20024;-71
2024/01/27 03:33:00;;;;;;;16.23;6.57;;;2.50;99.90;;;1.87;100.00;102978.88;4210587;28;20396;-71
2024/01/27 03:35:02;;;;;;;14.75;5.57;;;2.60;99.90;;;1.90;100.00;102988.34;4201901;28;20025;-71
2024/01/27 03:37:03;;;;;;;14.68;6.57;;;2.70;99.90;;;1.89;100.00;102990.09;4217807;28;20028;-71
2024/01/27 03:39:05;;;;;;;19.90;6.28;;;2.70;99.90;;;1.88;100.00;102985.75;4201932;28;20554;-71
2024/01/27 03:41:06;;;;;;;17.67;7.38;;;2.70;99.90;;;1.92;100.00;102984.78;4209573;28;20062;-71
2024/01/27 03:43:07;;;;;;;18.33;7.10;;;2.70;99.90;;;1.96;100.00;102982.94;4202985;28;20497;-71
2024/01/27 03:45:08;;;;;;;22.30;6.97;;;2.70;99.90;;;1.97;100.00;102977.69;4205368;28;20031;-71
2024/01/27 03:47:09;;;;;;;14.30;7.22;;;2.80;99.90;;;1.92;100.00;102965.72;4208690;28;20064;-71
2024/01/27 03:49:10;;;;;;;21.30;6.60;;;2.70;99.90;;;1.95;100.00;102974.28;4201845;28;20047;-71
2024/01/27 03:51:11;;;;;;;9.90;5.10;;;2.70;99.90;;;1.90;100.00;102963.16;4207087;28;20027;-71
2024/01/27 03:53:11;;;;;;;18.05;6.50;;;2.70;99.90;;;1.90;100.00;102959.72;4201860;28;20442;-71
2024/01/27 03:55:12;;;;;;;15.27;6.25;;;2.70;99.90;;;1.88;100.00;102966.72;4201909;28;20029;-71
2024/01/27 03:57:13;;;;;;;16.92;5.80;;;2.70;99.90;;;1.85;100.00;102961.59;4201995;28;20032;-71
2024/01/27 03:59:14;;;;;;;21.85;6.93;;;2.60;99.90;;;1.81;100.00;102960.84;4201657;28;20029;-71
2024/01/27 04:01:15;;;;;;;16.02;6.32;;;2.60;99.90;;;1.78;100.00;102968.75;4203126;28;20028;-71
2024/01/27 04:03:16;;;;;;;15.45;5.03;;;2.60;99.90;;;1.77;100.00;102971.38;4217176;28;20031;-71
2024/01/27 04:05:17;;;;;;;14.85;5.63;;;2.60;99.90;;;1.73;100.00;102973.25;4201800;28;20435;-71
2024/01/27 04:07:18;;;;;;;18.65;5.82;;;2.50;99.90;;;1.65;100.00;102954.38;4218268;28;20426;-71
2024/01/27 04:09:18;;;;;;;14.85;5.35;;;2.50;99.90;;;1.66;100.00;102956.09;4214073;28;20035;-71
2024/01/27 04:11:24;;;;;;;15.02;5.75;;;2.50;99.90;;;1.65;100.00;102951.78;4205838;28;20036;-71
2024/01/27 04:13:24;;;;;;;13.90;5.10;;;2.40;99.90;;;1.64;100.00;102953.50;4211491;28;20407;-71
2024/01/27 04:15:25;;;;;;;14.13;5.35;;;2.40;99.90;;;1.64;100.00;102948.31;4201616;28;20028;-71
2024/01/27 04:17:26;;;;;;;16.48;5.32;;;2.40;99.90;;;1.62;100.00;102941.47;4201540;28;20483;-71
2024/01/27 04:19:27;;;;;;;18.60;5.75;;;2.40;99.90;;;1.62;100.00;102944.91;4212078;28;20024;-71
2024/01/27 04:21:28;;;;;;;11.25;4.90;;;2.40;99.90;;;1.57;100.00;102933.81;4224572;28;20398;-71
2024/01/27 04:23:29;;;;;;;15.98;4.78;;;2.40;99.90;;;1.57;100.00;102940.75;4203850;28;20427;-71
2024/01/27 04:25:30;;;;;;;17.33;5.43;;;2.40;99.90;;;1.55;100.00;102932.97;4201740;28;20081;-71
2024/01/27 04:27:32;;;;;;;11.30;4.50;;;2.30;99.90;;;1.56;100.00;102939.03;4217266;28;20407;-71
2024/01/27 04:29:32;;;;;;;11.25;4.45;;;2.40;99.90;;;1.53;100.00;102934.78;4201700;28;20028;-71
2024/01/27 04:31:33;;;;;;;12.52;4.85;;;2.30;99.90;;;1.52;100.00;102935.66;4212996;28;20026;-70
2024/01/27 04:33:34;;;;;;;15.90;4.50;;;2.30;99.90;;;1.52;100.00;102934.84;4217001;28;20028;-70
2024/01/27 04:35:35;;;;;;;12.88;5.72;;;2.30;99.90;;;1.51;100.00;102930.53;4201668;28;20032;-71
2024/01/27 04:37:37;;;;;;;13.32;5.30;;;2.30;99.90;;;1.52;100.00;102927.03;4201688;28;20020;-70
2024/01/27 04:39:38;;;;;;;17.10;5.43;;;2.40;99.90;;;1.57;100.00;102931.22;4216755;28;20103;-70
2024/01/27 04:41:43;;;;;;;18.02;6.40;;;2.30;99.90;;;1.61;100.00;102939.78;4210823;28;20033;-71
2024/01/27 04:43:44;;;;;;;14.05;5.07;;;2.30;99.90;;;1.64;100.00;102937.09;4221461;28;20017;-71
2024/01/27 04:45:45;;;;;;;22.83;6.47;;;2.40;99.90;;;1.67;100.00;102940.41;4213214;28;20468;-71
2024/01/27 04:47:46;;;;;;;15.98;5.18;;;2.40;99.90;;;1.69;100.00;102945.59;4206977;28;20498;-71
2024/01/27 04:49:47;;;;;;;13.40;5.88;;;2.40;99.90;;;1.68;100.00;102952.53;4204681;28;20028;-71
2024/01/27 04:51:47;;;;;;;16.52;6.78;;;2.40;99.90;;;1.67;100.00;102947.41;4207253;28;20028;-70
2024/01/27 04:53:48;;;;;;;17.92;6.65;;;2.40;99.90;;;1.73;100.00;102938.56;4204633;28;20028;-70
2024/01/27 04:55:49;;;;;;;20.88;5.55;;;2.40;99.90;;;1.78;100.00;102945.31;4204553;28;20028;-71
2024/01/27 04:57:50;;;;;;;16.23;6.00;;;2.50;99.90;;;1.80;100.00;102946.13;4220217;28;20031;-71
2024/01/27 04:59:51;;;;;;;14.63;5.50;;;2.50;99.90;;;1.81;100.00;102947.84;4203246;28;20058;-71
2024/01/27 05:01:52;;;;;;;18.05;6.00;;;2.50;99.90;;;1.80;100.00;102940.06;4222151;28;20391;-71
2024/01/27 05:03:52;;;;;;;18.10;5.82;;;2.50;99.90;;;1.77;100.00;102935.81;4211106;28;20021;-71
2024/01/27 05:05:53;;;;;;;17.38;5.38;;;2.60;99.90;;;1.82;100.00;102935.69;4204426;28;20025;-70
2024/01/27 05:07:54;;;;;;;17.38;5.53;;;2.50;99.90;;;1.84;100.00;102933.88;4210757;28;20023;-71
2024/01/27 05:09:55;;;;;;;14.10;6.63;;;2.50;99.90;;;1.84;100.00;102924.31;4211509;28;20082;-71
2024/01/27 05:11:56;;;;;;;19.23;4.60;;;2.60;99.90;;;1.84;100.00;102923.47;4229258;28;20390;-70
2024/01/27 05:13:57;;;;;;;12.65;4.95;;;2.60;99.90;;;1.84;100.00;102924.31;4205537;28;20407;-71
2024/01/27 05:15:57;;;;;;;17.20;5.35;;;2.60;99.90;;;1.84;100.00;102919.13;4204311;28;20028;-71
2024/01/27 05:17:58;;;;;;;15.80;5.60;;;2.60;99.90;;;1.84;100.00;102918.25;4229462;27;20027;-71
2024/01/27 05:19:59;;;;;;;16.10;6.15;;;2.60;99.90;;;1.83;100.00;102922.59;4212883;28;20027;-70
2024/01/27 05:22:00;;;;;;;13.05;5.50;;;2.60;99.90;;;1.79;100.00;102921.03;4227180;28;20031;-70
2024/01/27 05:24:01;;;;;;;11.80;4.57;;;2.60;99.90;;;1.78;100.00;102918.44;4202979;28;20044;-70
2024/01/27 05:26:05;;;;;;;12.18;5.53;;;2.60;99.90;;;1.76;100.00;102921.13;4204255;28;20028;-70
2024/01/27 05:28:06;;;;;;;15.75;4.57;;;2.60;99.90;;;1.73;100.00;102912.53;4219422;28;20020;-70
2024/01/27 05:30:07;;;;;;;17.20;4.68;;;2.50;99.90;;;1.70;100.00;102910.88;4204056;28;20544;-71
2024/01/27 05:32:09;;;;;;;11.55;4.80;;;2.50;99.90;;;1.70;100.00;102910.88;4224089;28;20031;-70
2024/01/27 05:34:11;;;;;;;12.48;4.78;;;2.50;99.90;;;1.69;100.00;102906.56;4203991;28;20391;-70
2024/01/27 05:36:12;;;;;;;14.85;4.30;;;2.50;99.90;;;1.75;100.00;102909.00;4219412;28;20039;-70
2024/01/27 05:38:12;;;;;;;10.45;4.65;;;2.50;99.90;;;1.81;100.00;102908.81;4202679;28;20443;-70
2024/01/27 05:40:14;;;;;;;11.38;4.78;;;2.60;99.90;;;1.91;100.00;102907.59;4202669;28;20053;-71
2024/01/27 05:42:15;;;;;;;15.25;5.28;;;2.70;99.90;;;1.95;100.00;102901.41;4208418;28;20484;-71
2024/01/27 05:44:16;;;;;;;16.80;6.10;;;2.70;99.90;;;1.98;100.00;102900.47;4203741;28;20025;-71
2024/01/27 05:46:17;;;;;;;15.52;5.95;;;2.80;99.90;;;1.97;100.00;102899.59;4214067;28;20048;-71
2024/01/27 05:48:18;;;;;;;12.00;5.00;;;2.80;99.90;;;1.95;100.00;102901.41;4203652;28;20039;-71
2024/01/27 05:50:19;;;;;;;16.33;5.00;;;2.80;99.90;;;1.96;100.00;102897.06;4203766;28;20027;-71
2024/01/27 05:52:19;;;;;;;13.57;5.53;;;2.80;99.90;;;1.92;100.00;102890.25;4203933;28;20036;-71
2024/01/27 05:54:20;;;;;;;18.40;6.30;;;2.80;99.90;;;1.86;100.00;102896.50;4203087;28;20032;-71
2024/01/27 05:56:21;;;;;;;12.98;5.07;;;2.70;99.90;;;1.77;100.00;102891.56;4218692;28;20032;-70
2024/01/27 05:58:22;;;;;;;12.55;4.68;;;2.60;99.90;;;1.73;100.00;102905.59;4202445;28;20020;-70
2024/01/27 06:00:23;;;;;;;11.98;4.38;;;2.60;99.90;;;1.69;100.00;102893.56;4203503;28;20031;-70
2024/01/27 06:02:24;;;;;;;14.77;5.03;;;2.60;99.90;;;1.65;100.00;102897.16;4226169;28;20062;-71
2024/01/27 06:04:24;;;;;;;12.45;4.60;;;2.50;99.90;;;1.58;100.00;102887.84;4203566;28;20389;-71
2024/01/27 06:06:25;;;;;;;13.13;4.82;;;2.40;99.90;;;1.54;100.00;102883.63;4203438;28;20085;-71
2024/01/27 06:08:26;;;;;;;15.18;5.35;;;2.40;99.90;;;1.49;100.00;102877.72;4229819;28;20434;-70
2024/01/27 06:10:27;;;;;;;11.63;4.32;;;2.40;99.90;;;1.47;100.00;102884.69;4204944;28;20541;-70
2024/01/27 06:12:28;;;;;;;11.15;4.13;;;2.30;99.90;;;1.43;100.00;102877.91;4222094;28;20082;-70
2024/01/27 06:14:29;;;;;;;17.40;5.15;;;2.30;99.90;;;1.41;100.00;102879.66;4203471;28;20024;-70
2024/01/27 06:16:29;;;;;;;11.43;4.35;;;2.30;99.90;;;1.41;100.00;102885.72;4203479;28;20021;-71
2024/01/27 06:18:30;;;;;;;13.20;4.65;;;2.20;99.90;;;1.36;100.00;102878.97;4206450;28;20024;-71
2024/01/27 06:20:31;;;;;;;14.43;4.72;;;2.20;99.90;;;1.32;100.00;102883.41;4202971;28;20039;-70
2024/01/27 06:22:32;;;;;;;13.43;3.95;;;2.20;99.90;;;1.29;100.00;102874.84;4216958;28;20020;-71
2024/01/27 06:24:33;;;;;;;12.90;5.30;;;2.10;99.90;;;1.29;100.00;102874.84;4203418;28;20051;-70
2024/01/27 06:26:34;;;;;;;14.40;4.05;;;2.10;99.90;;;1.25;100.00;102875.84;4203261;28;20024;-71
2024/01/27 06:28:36;;;;;;;10.85;4.38;;;2.10;99.90;;;1.20;100.00;102878.56;4202926;28;20033;-71
2024/01/27 06:30:36;;;;;;;12.25;4.10;;;2.10;99.90;;;1.18;100.00;102880.34;4218536;28;20024;-70
2024/01/27 06:32:37;;;;;;;14.88;4.97;;;2.00;99.90;;;1.18;100.00;102884.69;4206077;28;20044;-70
2024/01/27 06:34:38;;;;;;;16.48;5.38;;;2.00;99.90;;;1.16;100.00;102887.34;4202950;28;20032;-70
2024/01/27 06:36:39;;;;;;;11.48;4.10;;;2.00;99.90;;;1.17;100.00;102883.84;4203214;28;20029;-71
2024/01/27 06:38:40;;;;;;;11.43;3.88;;;2.00;99.90;;;1.19;100.00;102884.66;4203129;28;20028;-71
2024/01/27 06:40:41;;;;;;;9.50;3.97;;;2.00;99.90;;;1.19;100.00;102876.00;4202954;28;20028;-70
2024/01/27 06:42:41;;;;;;;11.90;3.75;;;2.00;99.90;;;1.17;100.00;102889.03;4207332;28;20028;-70
2024/01/27 06:44:42;;;;;;;11.75;4.32;;;2.00;99.90;;;1.15;100.00;102885.63;4202893;28;20028;-71
2024/01/27 06:46:45;;;;;;;12.07;3.95;;;2.00;99.90;;;1.16;100.00;102883.91;4240414;27;20514;-70
2024/01/27 06:48:46;;;;;;;16.63;4.15;;;2.00;99.90;;;1.18;100.00;102874.28;4201358;28;20103;-71
2024/01/27 06:50:47;;;;;;;11.90;4.25;;;2.00;99.90;;;1.17;100.00;102880.38;4203057;28;20029;-71
2024/01/27 06:52:47;;;;;;;12.02;4.30;;;2.00;99.90;;;1.15;100.00;102884.78;4216775;28;20089;-70
2024/01/27 06:54:48;;;;;;;10.23;3.88;;;2.00;99.90;;;1.15;100.00;102887.38;4202816;28;20028;-71
2024/01/27 06:56:49;;;;;;;13.68;5.10;;;2.00;99.90;;;1.13;100.00;102885.66;4218298;28;20039;-70
2024/01/27 06:58:50;;;;;;;13.70;3.67;;;2.00;99.90;;;1.13;100.00;102886.59;4202510;28;20029;-70
2024/01/27 07:00:51;;;;;;;11.27;4.70;;;2.00;99.90;;;1.11;100.00;102884.88;4202392;28;20032;-71
2024/01/27 07:02:52;;;;;;;6.05;3.10;;;2.00;99.90;;;1.11;100.00;102884.00;4223316;28;20400;-71
2024/01/27 07:04:53;;;;;;;13.35;4.43;;;2.00;99.90;;;1.09;100.00;102881.47;4202540;28;20028;-70
2024/01/27 07:06:54;;;;;;;7.22;3.53;;;1.90;99.90;;;1.03;100.00;102868.66;4217989;28;20035;-70
2024/01/27 07:08:55;;;;;;;11.25;3.92;;;1.90;99.90;;;1.08;100.00;102878.91;4215891;28;20079;-71
2024/01/27 07:10:55;;;;;;;10.50;3.25;;;1.90;99.90;;;1.08;100.00;102878.91;4202602;28;20020;-70
2024/01/27 07:12:56;;;;;;;12.02;4.05;;;1.90;99.90;;;1.05;100.00;102872.03;4218441;28;20376;-71
2024/01/27 07:14:59;;;;;;;7.60;3.47;;;1.90;99.90;;;1.04;100.00;102875.56;4202440;28;20527;-70
2024/01/27 07:17:00;;;;;;;12.10;3.72;;;1.90;99.90;;;1.04;100.00;102879.91;4202248;28;20043;-70
2024/01/27 07:19:01;;;;;;;9.15;4.05;;;1.90;99.90;;;1.03;100.00;102883.38;4202092;28;20047;-70
2024/01/27 07:21:02;;;;;;;10.40;3.80;;;1.90;99.90;;;1.03;100.00;102883.38;4202683;28;20025;-70
2024/01/27 07:23:04;;;;;;;11.25;3.40;;;1.80;99.90;;;1.01;100.00;102891.22;4213262;28;20102;-70
2024/01/27 07:25:05;;;;;;;16.67;3.47;;;1.80;99.90;;;0.98;100.00;102886.13;4219222;28;20483;-70
2024/01/27 07:27:06;;;;;;;10.48;3.50;;;1.90;99.90;;;1.00;100.00;102886.06;4217780;28;20016;-70
2024/01/27 07:29:07;;;;;;;12.73;4.13;;;1.80;99.90;;;1.01;100.00;102892.97;4202329;28;20056;-71
2024/01/27 07:31:08;;;;;;;12.77;3.63;;;1.80;99.90;;;0.98;100.00;102883.53;4203044;28;20100;-70
2024/01/27 07:33:09;;;;;;;10.82;3.72;;;1.80;99.90;;;0.97;100.00;102874.00;4206507;28;20025;-70
2024/01/27 07:35:10;;;;;;;13.55;3.45;;;1.80;99.90;;;0.97;100.00;102876.63;4229696;28;20069;-70
2024/01/27 07:37:11;;;;;;;11.35;3.58;;;1.80;99.90;;;0.99;100.00;102868.75;4200939;28;20033;-70
2024/01/27 07:39:12;;;;;;;7.55;2.97;;;1.80;99.90;;;0.97;100.00;102871.41;4201950;28;20039;-71
2024/01/27 07:41:13;;;;;;;10.45;3.55;;;1.80;99.90;;;0.99;100.00;102860.97;4203263;28;20017;-70
2024/01/27 07:43:14;;;;;;;8.75;3.75;;;1.80;99.90;;;1.01;100.00;102870.44;4202078;28;20052;-70
2024/01/27 07:45:15;;;;;;;14.20;4.38;;;1.80;99.90;;;1.00;100.00;102880.88;4222343;28;20513;-70
2024/01/27 07:47:16;;;;;;;14.88;4.88;;;1.80;99.90;;;0.99;100.00;102890.41;4207987;28;20052;-70
2024/01/27 07:49:18;;;;;;;15.82;3.47;;;1.80;99.90;;;1.00;100.00;102894.72;4201762;28;20035;-70
2024/01/27 07:51:19;;;;;;;7.97;3.25;;;1.80;99.90;;;1.04;100.00;102888.56;4205013;28;20024;-70
2024/01/27 07:53:19;;;;;;;12.00;4.35;;;1.80;99.90;;;1.07;100.00;102892.81;4222413;28;20029;-70
2024/01/27 07:55:20;;;;;;;7.40;3.25;;;1.80;99.90;;;1.06;100.00;102891.94;4217458;28;20035;-70
2024/01/27 07:57:22;;;;;;;10.35;3.83;;;1.90;99.90;;;1.05;100.00;102898.03;4201860;28;20035;-70
2024/01/27 07:59:23;;;;;;;12.65;3.65;;;1.90;99.90;;;1.11;100.00;102891.81;4217183;28;20047;-70
2024/01/27 08:01:23;;;;;;;6.72;3.20;;;1.90;99.90;;;1.17;100.00;102894.22;4202584;28;20020;-70
2024/01/27 08:03:24;;;;;;;10.13;3.45;;;1.90;99.90;;;1.18;100.00;102889.88;4207860;28;20021;-70
2024/01/27 08:05:25;;;;;;;12.82;4.03;;;2.00;99.90;;;1.24;100.00;102898.38;4201926;28;20017;-70
2024/01/27 08:07:26;;;;;;;14.63;3.80;;;2.00;99.90;;;1.31;100.00;102896.47;4203973;28;20074;-70
2024/01/27 08:09:27;;;;;;;11.05;3.67;;;2.10;99.90;;;1.35;100.00;102898.06;4213043;28;20039;-70
2024/01/27 08:11:27;;;;;;;11.77;3.50;;;2.10;99.90;;;1.38;100.00;102898.81;4206883;28;20044;-70
2024/01/27 08:13:28;;;;;;;13.75;4.18;;;2.20;99.90;;;1.43;100.00;102906.50;4213242;28;20036;-70
2024/01/27 08:15:29;;;;;;;9.00;3.25;;;2.20;99.90;;;1.49;100.00;102903.72;4218502;28;20044;-70
2024/01/27 08:17:30;;;;;;;8.13;3.80;;;2.30;99.90;;;1.52;100.00;102908.84;4218304;28;20031;-70
2024/01/27 08:19:32;;;;;;;7.70;3.25;;;2.30;99.90;;;1.57;100.00;102909.53;4221470;28;20024;-70
2024/01/27 08:21:32;;;;;;;9.40;3.53;;;2.40;99.90;;;1.62;100.00;102912.84;4224921;28;20022;-70
2024/01/27 08:23:33;;;;;;;10.95;2.67;;;2.40;99.90;;;1.64;100.00;102917.09;4208540;28;20028;-70